createdAt,value
2024-04-06T00:00:29.603Z,57.41
2024-04-06T00:02:59.802Z,57.30
2024-04-06T00:05:30.017Z,57.74
2024-04-06T00:08:09.573Z,57.93
2024-04-06T00:10:44.058Z,57.78
2024-04-06T00:13:14.918Z,57.94
2024-04-06T00:15:45.346Z,57.69
2024-04-06T00:18:15.517Z,57.85
2024-04-06T00:20:45.686Z,58.23
2024-04-06T00:23:15.940Z,58.59
2024-04-06T00:25:46.134Z,58.16
2024-04-06T00:28:16.333Z,58.25
2024-04-06T00:30:46.452Z,58.21
2024-04-06T00:33:16.641Z,58.12
2024-04-06T00:35:46.840Z,58.49
2024-04-06T00:38:16.935Z,58.45
2024-04-06T00:40:47.250Z,58.55
2024-04-06T00:43:17.455Z,58.78
2024-04-06T00:45:48.010Z,58.82
2024-04-06T00:48:18.204Z,59.16
2024-04-06T00:50:48.701Z,59.16
2024-04-06T00:53:18.840Z,59.06
2024-04-06T00:55:49.260Z,59.47
2024-04-06T00:58:20.819Z,59.43
2024-04-06T01:00:51.343Z,59.76
2024-04-06T01:03:21.662Z,59.97
2024-04-06T01:05:52.275Z,60.02
2024-04-06T01:08:22.826Z,59.94
2024-04-06T01:10:53.239Z,59.85
2024-04-06T01:13:23.569Z,59.91
2024-04-06T01:15:54.234Z,60.70
2024-04-06T01:18:24.542Z,60.05
2024-04-06T01:20:58.265Z,60.38
2024-04-06T01:23:28.498Z,60.30
2024-04-06T01:26:00.358Z,60.65
2024-04-06T01:28:31.527Z,60.78
2024-04-06T01:31:01.700Z,60.46
2024-04-06T01:33:32.259Z,60.48
2024-04-06T01:36:02.531Z,60.50
2024-04-06T01:38:32.763Z,60.71
2024-04-06T01:41:02.992Z,60.45
2024-04-06T01:43:33.205Z,60.40
2024-04-06T01:46:03.377Z,60.63
2024-04-06T01:48:33.540Z,60.72
2024-04-06T01:51:04.001Z,60.95
2024-04-06T01:53:34.296Z,60.92
2024-04-06T01:56:04.970Z,60.32
2024-04-06T01:58:35.188Z,60.45
2024-04-06T02:01:05.848Z,60.10
2024-04-06T02:03:36.580Z,60.42
2024-04-06T02:06:09.858Z,60.60
2024-04-06T02:08:40.443Z,60.85
2024-04-06T02:11:10.652Z,60.65
2024-04-06T02:13:41.255Z,60.57
2024-04-06T02:16:11.671Z,60.36
2024-04-06T02:18:43.806Z,60.52
2024-04-06T02:21:13.972Z,60.88
2024-04-06T02:23:44.228Z,61.00
2024-04-06T02:26:14.479Z,60.54
2024-04-06T02:28:44.678Z,60.43
2024-04-06T02:31:15.074Z,60.62
2024-04-06T02:33:45.369Z,60.92
2024-04-06T02:36:15.580Z,60.80
2024-04-06T02:38:45.753Z,60.70
2024-04-06T02:41:15.968Z,60.75
2024-04-06T02:43:46.169Z,61.11
2024-04-06T02:46:16.325Z,61.13
2024-04-06T02:48:48.618Z,61.32
2024-04-06T02:51:19.221Z,61.38
2024-04-06T02:53:50.388Z,61.33
2024-04-06T02:56:20.622Z,61.51
2024-04-06T02:58:50.746Z,61.74
2024-04-06T03:01:21.059Z,61.79
2024-04-06T03:03:51.290Z,61.95
2024-04-06T03:06:21.507Z,61.81
2024-04-06T03:08:51.725Z,61.93
2024-04-06T03:11:21.979Z,61.99
2024-04-06T03:13:52.514Z,61.94
2024-04-06T03:16:23.050Z,61.94
2024-04-06T03:18:53.250Z,62.33
2024-04-06T03:21:23.423Z,62.30
2024-04-06T03:23:53.647Z,62.42
2024-04-06T03:26:24.115Z,62.77
2024-04-06T03:28:54.344Z,62.43
2024-04-06T03:31:24.669Z,62.41
2024-04-06T03:33:55.688Z,62.39
2024-04-06T03:36:27.912Z,62.34
2024-04-06T03:38:58.372Z,62.51
2024-04-06T03:41:28.716Z,62.86
2024-04-06T03:43:59.036Z,62.80
2024-04-06T03:46:31.773Z,62.55
2024-04-06T03:49:01.919Z,62.91
2024-04-06T03:51:32.199Z,63.02
2024-04-06T03:54:02.361Z,63.15
2024-04-06T03:56:32.806Z,62.88
2024-04-06T03:59:03.027Z,62.65
2024-04-06T04:01:33.230Z,62.54
2024-04-06T04:04:03.464Z,62.72
2024-04-06T04:06:33.677Z,62.55
2024-04-06T04:09:03.909Z,62.98
2024-04-06T04:11:34.241Z,62.59
2024-04-06T04:14:04.641Z,62.66
2024-04-06T04:16:35.194Z,62.52
2024-04-06T04:19:05.496Z,62.13
2024-04-06T04:21:35.811Z,61.97
2024-04-06T04:24:06.861Z,61.58
2024-04-06T04:26:37.089Z,61.59
2024-04-06T04:29:07.272Z,61.64
2024-04-06T04:31:37.537Z,61.68
2024-04-06T04:34:07.807Z,61.78
2024-04-06T04:36:38.043Z,61.54
2024-04-06T04:39:08.172Z,61.26
2024-04-06T04:41:38.636Z,61.28
2024-04-06T04:44:24.784Z,61.51
2024-04-06T04:46:59.084Z,61.60
2024-04-06T04:49:29.688Z,61.66
2024-04-06T04:51:59.928Z,61.72
2024-04-06T04:54:30.443Z,62.03
2024-04-06T04:57:00.991Z,62.13
2024-04-06T04:59:31.466Z,62.26
2024-04-06T05:02:01.819Z,62.20
2024-04-06T05:04:32.014Z,62.42
2024-04-06T05:07:02.251Z,62.59
2024-04-06T05:09:32.698Z,62.67
2024-04-06T05:12:03.756Z,63.09
2024-04-06T05:14:34.068Z,63.17
2024-04-06T05:17:04.611Z,63.46
2024-04-06T05:19:35.948Z,63.57
2024-04-06T05:22:07.263Z,63.35
2024-04-06T05:24:37.413Z,63.63
2024-04-06T05:27:08.170Z,63.53
2024-04-06T05:29:38.624Z,63.71
2024-04-06T05:32:09.989Z,63.64
2024-04-06T05:34:40.432Z,64.19
2024-04-06T05:37:10.853Z,63.99
2024-04-06T05:39:41.196Z,64.24
2024-04-06T05:42:11.468Z,64.24
2024-04-06T05:44:41.686Z,64.49
2024-04-06T05:47:12.125Z,64.47
2024-04-06T05:49:42.322Z,64.40
2024-04-06T05:52:12.731Z,64.44
2024-04-06T05:54:43.353Z,64.83
2024-04-06T05:57:13.968Z,64.80
2024-04-06T05:59:44.201Z,65.11
2024-04-06T06:02:14.635Z,64.99
2024-04-06T06:04:47.621Z,64.90
2024-04-06T06:07:18.007Z,65.03
2024-04-06T06:09:48.763Z,65.22
2024-04-06T06:12:20.320Z,65.25
2024-04-06T06:14:51.355Z,64.90
2024-04-06T06:17:22.446Z,64.77
2024-04-06T06:19:52.726Z,64.64
2024-04-06T06:22:23.270Z,64.91
2024-04-06T06:24:53.654Z,65.02
2024-04-06T06:27:23.921Z,65.26
2024-04-06T06:29:54.578Z,65.42
2024-04-06T06:32:25.096Z,65.43
2024-04-06T06:34:55.271Z,65.56
2024-04-06T06:42:32.095Z,65.35
2024-04-06T06:45:06.841Z,65.31
2024-04-06T06:47:37.116Z,65.47
2024-04-06T06:50:09.637Z,65.49
2024-04-06T06:52:39.762Z,65.54
2024-04-06T06:55:10.461Z,65.25
2024-04-06T06:57:41.166Z,64.35
2024-04-06T07:02:46.655Z,62.73
2024-04-06T07:05:17.277Z,61.93
2024-04-06T07:07:56.217Z,60.73
2024-04-06T07:10:26.466Z,59.18
2024-04-06T07:12:57.456Z,58.39
2024-04-06T07:15:27.629Z,58.30
2024-04-06T07:17:58.621Z,57.85
2024-04-06T07:20:29.091Z,57.46
2024-04-06T07:22:59.305Z,57.42
2024-04-06T07:25:29.844Z,57.77
2024-04-06T07:28:00.079Z,57.86
2024-04-06T07:30:30.412Z,57.48
2024-04-06T07:33:00.765Z,57.33
2024-04-06T07:35:31.040Z,56.99
2024-04-06T07:38:01.252Z,56.75
2024-04-06T07:40:31.728Z,56.76
2024-04-06T07:43:03.662Z,56.49
2024-04-06T07:45:34.196Z,55.78
2024-04-06T07:48:04.743Z,55.37
2024-04-06T07:50:35.514Z,54.50
2024-04-06T07:53:06.015Z,53.81
2024-04-06T07:55:36.401Z,53.68
2024-04-06T07:58:06.874Z,53.48
2024-04-06T08:00:38.009Z,53.06
2024-04-06T08:03:09.118Z,52.57
2024-04-06T08:05:39.380Z,52.19
2024-04-06T08:08:10.087Z,51.34
2024-04-06T08:10:43.246Z,51.22
2024-04-06T08:13:15.064Z,51.43
2024-04-06T08:15:46.495Z,51.46
2024-04-06T08:18:16.803Z,51.46
2024-04-06T08:20:48.244Z,51.50
2024-04-06T08:23:19.356Z,51.48
2024-04-06T08:25:53.955Z,51.25
2024-04-06T08:28:24.300Z,50.91
2024-04-06T08:30:54.528Z,50.50
2024-04-06T08:33:24.807Z,49.78
2024-04-06T08:36:02.185Z,49.77
2024-04-06T08:38:32.321Z,49.63
2024-04-06T08:41:11.245Z,49.52
2024-04-06T08:43:46.018Z,49.02
2024-04-06T08:46:18.209Z,48.12
2024-04-06T08:48:50.554Z,48.43
2024-04-06T08:51:24.186Z,48.50
2024-04-06T08:53:54.743Z,48.08
2024-04-06T08:56:25.400Z,48.00
2024-04-06T08:58:55.709Z,47.65
2024-04-06T09:01:25.963Z,48.23
2024-04-06T09:03:56.279Z,47.74
2024-04-06T09:06:26.672Z,47.31
2024-04-06T09:08:56.925Z,46.98
2024-04-06T09:11:27.177Z,47.17
2024-04-06T09:14:03.573Z,47.30
2024-04-06T09:16:34.846Z,47.51
2024-04-06T09:19:05.270Z,47.59
2024-04-06T09:21:36.370Z,47.29
2024-04-06T09:24:07.859Z,47.16
2024-04-06T09:26:38.152Z,47.47
2024-04-06T09:29:08.446Z,47.48
2024-04-06T09:31:48.633Z,47.27
2024-04-06T09:34:18.805Z,47.08
2024-04-06T09:36:54.765Z,46.47
2024-04-06T09:39:25.474Z,46.48
2024-04-06T09:41:56.588Z,46.05
2024-04-06T09:44:28.772Z,46.12
2024-04-06T09:46:59.019Z,45.61
2024-04-06T09:49:30.003Z,45.80
2024-04-06T09:52:01.309Z,45.00
2024-04-06T09:54:32.887Z,45.10
2024-04-06T09:57:03.443Z,44.92
2024-04-06T09:59:33.920Z,44.83
2024-04-06T10:02:05.368Z,44.34
2024-04-06T10:04:39.650Z,44.47
2024-04-06T10:07:09.827Z,43.81
2024-04-06T10:09:40.036Z,43.77
2024-04-06T10:12:12.687Z,43.38
2024-04-06T10:14:49.197Z,43.72
2024-04-06T10:17:19.491Z,44.20
2024-04-06T10:19:50.122Z,44.24
2024-04-06T10:22:27.104Z,43.85
2024-04-06T10:25:03.450Z,44.01
2024-04-06T10:27:40.913Z,44.24
2024-04-06T10:30:12.102Z,43.43
2024-04-06T10:32:42.824Z,44.04
2024-04-06T10:35:13.940Z,43.59
2024-04-06T10:37:44.191Z,43.47
2024-04-06T10:40:15.115Z,43.30
2024-04-06T10:42:45.401Z,43.08
2024-04-06T10:45:17.558Z,43.14
2024-04-06T10:47:47.929Z,43.67
2024-04-06T10:50:18.242Z,43.95
2024-04-06T10:52:49.655Z,43.41
2024-04-06T10:55:21.927Z,43.16
2024-04-06T10:57:52.396Z,43.09
2024-04-06T11:00:22.714Z,42.84
2024-04-06T11:02:52.929Z,43.11
2024-04-06T11:05:24.027Z,42.98
2024-04-06T11:07:54.260Z,42.56
2024-04-06T11:10:25.309Z,42.02
2024-04-06T11:12:57.861Z,42.66
2024-04-06T11:15:29.050Z,42.90
2024-04-06T11:18:00.380Z,42.08
2024-04-06T11:20:34.642Z,42.42
2024-04-06T11:23:05.429Z,42.92
2024-04-06T11:25:40.784Z,42.73
2024-04-06T11:28:11.083Z,42.92
2024-04-06T11:30:42.727Z,41.47
2024-04-06T11:33:12.907Z,42.44
2024-04-06T11:35:43.188Z,42.98
2024-04-06T11:38:13.514Z,42.06
2024-04-06T11:40:48.166Z,41.83
2024-04-06T11:43:18.557Z,41.77
2024-04-06T11:45:49.260Z,41.38
2024-04-06T11:48:19.727Z,41.64
2024-04-06T11:50:50.056Z,41.06
2024-04-06T11:53:20.294Z,41.13
2024-04-06T11:55:50.643Z,41.14
2024-04-06T11:58:20.903Z,41.11
2024-04-06T12:00:51.250Z,41.66
2024-04-06T12:03:21.751Z,42.03
2024-04-06T12:05:54.499Z,41.76
2024-04-06T12:08:26.161Z,40.83
2024-04-06T12:10:56.602Z,40.88
2024-04-06T12:13:26.781Z,41.51
2024-04-06T12:15:57.063Z,41.93
2024-04-06T12:18:28.039Z,41.27
2024-04-06T12:20:58.264Z,40.88
2024-04-06T12:23:29.124Z,40.79
2024-04-06T12:25:59.870Z,40.73
2024-04-06T12:28:30.398Z,40.26
2024-04-06T12:31:03.493Z,39.93
2024-04-06T12:33:32.456Z,40.09
2024-04-06T12:36:03.080Z,40.48
2024-04-06T12:38:33.658Z,40.35
2024-04-06T12:41:04.107Z,40.48
2024-04-06T12:43:34.372Z,40.76
2024-04-06T12:46:05.253Z,40.32
2024-04-06T12:48:36.324Z,40.27
2024-04-06T12:51:09.984Z,40.25
2024-04-06T12:53:41.127Z,40.25
2024-04-06T12:56:11.685Z,40.12
2024-04-06T12:58:42.962Z,40.65
2024-04-06T13:01:13.719Z,40.22
2024-04-06T13:03:52.714Z,39.30
2024-04-06T13:06:30.280Z,40.16
2024-04-06T13:09:00.749Z,40.66
2024-04-06T13:11:31.005Z,40.58
2024-04-06T13:14:01.249Z,40.90
2024-04-06T13:16:31.579Z,41.01
2024-04-06T13:19:01.818Z,40.86
2024-04-06T13:21:32.017Z,40.89
2024-04-06T13:24:02.700Z,40.74
2024-04-06T13:26:32.921Z,40.44
2024-04-06T13:29:05.086Z,41.01
2024-04-06T13:31:35.717Z,41.31
2024-04-06T13:34:07.572Z,41.37
2024-04-06T13:36:37.830Z,41.34
2024-04-06T13:39:08.916Z,41.12
2024-04-06T13:41:39.191Z,39.84
2024-04-06T13:44:09.477Z,39.65
2024-04-06T13:46:39.749Z,39.97
2024-04-06T13:49:11.850Z,39.94
2024-04-06T13:51:43.107Z,40.37
2024-04-06T13:54:13.430Z,40.20
2024-04-06T13:56:46.082Z,39.75
2024-04-06T13:59:16.608Z,39.39
2024-04-06T14:01:47.322Z,39.55
2024-04-06T14:04:18.770Z,39.14
2024-04-06T14:06:49.234Z,38.81
2024-04-06T14:09:20.000Z,38.62
2024-04-06T14:11:50.288Z,38.39
2024-04-06T14:14:23.247Z,38.43
2024-04-06T14:16:55.080Z,38.64
2024-04-06T14:19:27.071Z,39.47
2024-04-06T14:21:58.133Z,38.77
2024-04-06T14:24:28.469Z,38.62
2024-04-06T14:26:59.544Z,38.79
2024-04-06T14:29:29.875Z,38.75
2024-04-06T14:32:00.394Z,39.15
2024-04-06T14:34:30.603Z,38.86
2024-04-06T14:37:00.902Z,38.62
2024-04-06T14:39:31.164Z,38.95
2024-04-06T14:42:01.472Z,38.75
2024-04-06T14:44:31.889Z,38.99
2024-04-06T14:47:02.548Z,39.17
2024-04-06T14:49:32.763Z,39.20
2024-04-06T14:52:04.472Z,39.14
2024-04-06T14:54:34.816Z,39.46
2024-04-06T14:57:05.973Z,39.06
2024-04-06T14:59:36.216Z,39.42
2024-04-06T15:02:07.423Z,40.02
2024-04-06T15:04:38.134Z,39.73
2024-04-06T15:07:09.235Z,39.83
2024-04-06T15:09:40.687Z,39.31
2024-04-06T15:12:11.792Z,39.58
2024-04-06T15:14:42.066Z,39.82
2024-04-06T15:17:12.569Z,39.22
2024-04-06T15:19:44.011Z,39.36
2024-04-06T15:22:16.881Z,39.19
2024-04-06T15:24:47.848Z,39.41
2024-04-06T15:27:18.037Z,39.55
2024-04-06T15:29:48.285Z,39.76
2024-04-06T15:32:20.353Z,39.58
2024-04-06T15:34:50.613Z,39.45
2024-04-06T15:37:21.772Z,39.60
2024-04-06T15:39:51.999Z,40.05
2024-04-06T15:42:24.432Z,40.28
2024-04-06T15:44:54.694Z,40.51
2024-04-06T15:47:25.081Z,40.27
2024-04-06T15:49:55.247Z,40.22
2024-04-06T15:52:26.270Z,39.95
2024-04-06T15:54:56.677Z,39.92
2024-04-06T15:57:27.013Z,39.97
2024-04-06T15:59:57.679Z,39.99
2024-04-06T16:02:28.033Z,40.21
2024-04-06T16:04:58.512Z,40.40
2024-04-06T16:07:28.747Z,40.48
2024-04-06T16:09:59.068Z,40.11
2024-04-06T16:12:29.500Z,40.06
2024-04-06T16:14:59.795Z,39.94
2024-04-06T16:17:30.058Z,40.07
2024-04-06T16:20:00.394Z,40.06
2024-04-06T16:22:30.820Z,40.10
2024-04-06T16:25:01.174Z,40.00
2024-04-06T16:27:31.487Z,39.82
2024-04-06T16:30:01.876Z,39.56
2024-04-06T16:32:32.104Z,39.80
2024-04-06T16:35:02.302Z,39.77
2024-04-06T16:37:32.556Z,39.76
2024-04-06T16:40:05.445Z,39.85
2024-04-06T16:42:35.830Z,39.81
2024-04-06T16:45:07.562Z,39.64
2024-04-06T16:47:37.969Z,39.61
2024-04-06T16:50:09.099Z,39.73
2024-04-06T16:52:41.410Z,39.63
2024-04-06T16:55:11.971Z,39.70
2024-04-06T16:57:43.334Z,39.86
2024-04-06T17:00:16.296Z,39.82
2024-04-06T17:02:47.630Z,40.04
2024-04-06T17:05:22.176Z,40.20
2024-04-06T17:07:52.644Z,40.58
2024-04-06T17:10:23.256Z,40.91
2024-04-06T17:12:53.794Z,41.05
2024-04-06T17:15:24.140Z,41.27
2024-04-06T17:17:54.388Z,41.43
2024-04-06T17:20:26.301Z,41.74
2024-04-06T17:22:56.918Z,42.13
2024-04-06T17:25:27.231Z,42.47
2024-04-06T17:27:58.368Z,43.20
2024-04-06T17:30:28.654Z,43.10
2024-04-06T17:32:59.390Z,43.00
2024-04-06T17:35:30.402Z,43.19
2024-04-06T17:38:01.860Z,43.75
2024-04-06T17:40:32.245Z,44.21
2024-04-06T17:43:02.578Z,44.37
2024-04-06T17:45:33.009Z,44.65
2024-04-06T17:48:03.369Z,44.60
2024-04-06T17:50:33.858Z,44.56
2024-04-06T17:53:04.286Z,44.67
2024-04-06T17:55:34.535Z,44.55
2024-04-06T17:58:05.468Z,44.82
2024-04-06T18:00:35.806Z,45.12
2024-04-06T18:03:07.962Z,45.54
2024-04-06T18:05:38.266Z,45.69
2024-04-06T18:08:09.501Z,45.95
2024-04-06T18:10:40.844Z,46.36
2024-04-06T18:13:13.534Z,46.28
2024-04-06T18:15:44.684Z,46.47
2024-04-06T18:18:15.084Z,46.65
2024-04-06T18:20:47.043Z,47.10
2024-04-06T18:23:18.031Z,47.57
2024-04-06T18:25:48.295Z,47.60
2024-04-06T18:28:18.855Z,47.77
2024-04-06T18:30:49.166Z,47.56
2024-04-06T18:33:22.691Z,47.62
2024-04-06T18:35:54.647Z,47.88
2024-04-06T18:38:25.806Z,48.05
2024-04-06T18:40:56.330Z,48.53
2024-04-06T18:43:27.939Z,48.84
2024-04-06T18:45:58.454Z,49.40
2024-04-06T18:48:29.361Z,49.45
2024-04-06T18:50:59.728Z,50.16
2024-04-06T18:53:30.782Z,50.74
2024-04-06T18:56:02.164Z,50.90
2024-04-06T18:58:32.384Z,51.01
2024-04-06T19:01:03.172Z,51.02
2024-04-06T19:03:33.948Z,51.15
2024-04-06T19:06:05.000Z,51.33
2024-04-06T19:08:35.846Z,51.00
2024-04-06T19:11:06.690Z,50.94
2024-04-06T19:13:37.027Z,51.13
2024-04-06T19:16:08.667Z,51.07
2024-04-06T19:18:38.973Z,51.12
2024-04-06T19:21:09.299Z,51.13
2024-04-06T19:23:39.907Z,51.16
2024-04-06T19:26:10.306Z,51.10
2024-04-06T19:28:40.634Z,51.24
2024-04-06T19:31:12.241Z,51.29
2024-04-06T19:33:42.641Z,51.36
2024-04-06T19:36:16.056Z,51.31
2024-04-06T19:38:44.874Z,51.29
2024-04-06T19:41:15.448Z,51.15
2024-04-06T19:43:45.630Z,51.09
2024-04-06T19:46:16.197Z,51.06
2024-04-06T19:48:46.464Z,50.89
2024-04-06T19:51:16.761Z,50.62
2024-04-06T19:53:47.320Z,50.73
2024-04-06T19:56:17.542Z,50.66
2024-04-06T19:58:50.236Z,50.26
2024-04-06T20:01:20.986Z,50.30
2024-04-06T20:03:51.266Z,50.31
2024-04-06T20:06:21.534Z,50.41
2024-04-06T20:09:06.501Z,50.63
2024-04-06T20:11:37.073Z,51.14
2024-04-06T20:14:07.285Z,51.59
2024-04-06T20:16:37.600Z,51.53
2024-04-06T20:19:07.984Z,51.69
2024-04-06T20:21:38.794Z,52.09
2024-04-06T20:24:27.732Z,52.60
2024-04-06T20:26:58.126Z,52.82
2024-04-06T20:29:28.255Z,53.17
2024-04-06T20:31:59.301Z,53.34
2024-04-06T20:34:30.697Z,53.90
2024-04-06T20:37:07.582Z,54.10
2024-04-06T20:39:38.467Z,54.25
2024-04-06T20:42:08.989Z,54.20
2024-04-06T20:44:39.262Z,54.37
2024-04-06T20:47:09.525Z,54.61
2024-04-06T20:49:39.796Z,54.68
2024-04-06T20:52:12.593Z,55.17
2024-04-06T20:54:42.768Z,55.58
2024-04-06T20:57:12.938Z,55.86
2024-04-06T20:59:43.134Z,56.28
2024-04-06T21:02:13.358Z,55.90
2024-04-06T21:04:43.536Z,56.03
2024-04-06T21:07:13.820Z,56.45
2024-04-06T21:09:44.421Z,56.58
2024-04-06T21:12:14.978Z,57.00
2024-04-06T21:14:45.648Z,56.78
2024-04-06T21:17:15.971Z,56.36
2024-04-06T21:19:46.397Z,55.96
2024-04-06T21:22:16.658Z,55.82
2024-04-06T21:24:46.900Z,55.87
2024-04-06T21:27:17.244Z,55.57
2024-04-06T21:29:50.268Z,55.36
2024-04-06T21:32:22.408Z,55.51
2024-04-06T21:34:52.526Z,55.45
2024-04-06T21:37:22.667Z,55.54
2024-04-06T21:39:53.463Z,55.49
2024-04-06T21:42:23.703Z,55.59
2024-04-06T21:44:53.790Z,55.33
2024-04-06T21:47:24.268Z,55.34
2024-04-06T21:49:54.503Z,55.23
2024-04-06T21:52:24.704Z,55.58
2024-04-06T21:54:54.867Z,55.50
2024-04-06T21:57:25.537Z,55.81
2024-04-06T22:00:08.087Z,55.85
2024-04-06T22:02:43.388Z,55.90
2024-04-06T22:05:14.116Z,56.18
2024-04-06T22:07:44.353Z,56.32
2024-04-06T22:10:14.639Z,56.57
2024-04-06T22:12:44.886Z,56.89
2024-04-06T22:15:15.514Z,56.83
2024-04-06T22:17:45.786Z,56.68
2024-04-06T22:20:16.078Z,56.97
2024-04-06T22:22:46.508Z,57.29
2024-04-06T22:25:16.736Z,57.37
2024-04-06T22:27:47.044Z,57.33
2024-04-06T22:30:17.564Z,57.74
2024-04-06T22:32:47.689Z,57.82
2024-04-06T22:35:18.200Z,58.12
2024-04-06T22:37:48.359Z,58.03
2024-04-06T22:40:22.222Z,58.03
2024-04-06T22:42:52.377Z,58.14
2024-04-06T22:45:22.506Z,58.68
2024-04-06T22:47:52.693Z,58.31
2024-04-06T22:50:23.209Z,58.52
2024-04-06T22:52:53.433Z,58.21
2024-04-06T22:55:23.670Z,58.30
2024-04-06T22:57:53.813Z,58.29
2024-04-06T23:00:24.343Z,58.49
2024-04-06T23:02:54.539Z,58.45
2024-04-06T23:05:24.760Z,58.58
2024-04-06T23:07:54.966Z,58.42
2024-04-06T23:10:25.235Z,58.20
2024-04-06T23:12:55.543Z,58.27
2024-04-06T23:15:25.669Z,58.72
2024-04-06T23:17:55.871Z,58.57
2024-04-06T23:20:26.930Z,58.64
2024-04-06T23:22:57.218Z,58.64
2024-04-06T23:25:27.748Z,58.65
2024-04-06T23:27:57.938Z,58.96
2024-04-06T23:30:28.124Z,59.27
2024-04-06T23:32:58.421Z,59.34
2024-04-06T23:35:29.147Z,59.12
2024-04-06T23:37:59.384Z,59.03
2024-04-06T23:40:29.635Z,59.29
2024-04-06T23:43:00.332Z,59.40
2024-04-06T23:45:30.482Z,59.55
2024-04-06T23:48:00.679Z,59.87
2024-04-06T23:50:31.339Z,60.07
2024-04-06T23:53:02.083Z,59.90
2024-04-06T23:55:32.487Z,59.95
2024-04-06T23:58:03.511Z,60.30
